Jacamar Arrow — C6YT3 — position and weather

sailwx.info

Track history (hours):
 
Tides and Currents Weather Stations Pressure Air Temp Water Temp Dewpoint Dewpoint Depression Visibility Wind Speed Wind Dir Waves Ship Positions

Jacamar Arrow

Last reported at 2018-Feb-21 23:58 UTC. Time now 2018-Feb-22 01:18 UTC.
Position S 23°37' W 042°56'.

Length 199 m; draft 11.1 m.

Type: Cargo ship. MMSI: 311044400.

Date/timePositionNaut miles runAvg speedWind from/ knotsBaromVisibWave heightAir tempDewpointWater temp
2018-Feb-21 23:58S 23°37' W 042°56'611.9
2018-Feb-21 23:26S 23°38' W 043°03'511.8
2018-Feb-21 23:00S 23°40' W 043°08'611.8
2018-Feb-21 22:29S 23°42' W 043°14'611.7
2018-Feb-21 22:01S 23°43' W 043°20'711.6
2018-Feb-21 21:27S 23°45' W 043°27'811.6
2018-Feb-21 20:45S 23°47' W 043°35'511.7
2018-Feb-21 20:21S 23°49' W 043°40'15011.3
2018-Feb-21 07:07S 24°08' W 046°23'1 9.3
2018-Feb-21 06:58S 24°06' W 046°24'4 5.9
2018-Feb-21 06:18S 24°02' W 046°22'2 8.3
2018-Feb-21 06:00S 24°01' W 046°21'4 4.6
2018-Feb-21 05:08S 23°57' W 046°18'1 5.5
2018-Feb-21 05:01S 23°56' W 046°19'2 3.3
2018-Feb-21 04:30S 23°56' W 046°20'0 0.2
2018-Feb-21 03:56S 23°56' W 046°20'0 0.0
2018-Feb-21 03:29S 23°56' W 046°20'0 0.0
2018-Feb-21 02:56S 23°56' W 046°20'0 0.0
2018-Feb-21 02:14S 23°56' W 046°20'0 0.0
2018-Feb-21 01:44S 23°56' W 046°20'0 0.0
2018-Feb-21 01:26S 23°56' W 046°20'0 0.0
2018-Feb-21 00:50S 23°56' W 046°20'0 0.0
2018-Feb-21 00:26S 23°56' W 046°20'0 0.0
2018-Feb-20 23:14S 23°56' W 046°20'0 0.0
2018-Feb-20 22:02S 23°56' W 046°20'0 0.0
2018-Feb-20 21:38S 23°56' W 046°20'0 0.0
2018-Feb-20 21:14S 23°56' W 046°20'0 0.0
2018-Feb-20 20:56S 23°56' W 046°20'0 0.0
2018-Feb-20 20:26S 23°56' W 046°20'0 0.0
2018-Feb-20 19:56S 23°56' W 046°20'0 0.0
2018-Feb-20 19:26S 23°56' W 046°20'0 0.0
2018-Feb-20 18:56S 23°56' W 046°20'0 0.0
2018-Feb-20 18:26S 23°56' W 046°20'0 0.0
2018-Feb-20 17:50S 23°56' W 046°20'0 0.0
2018-Feb-20 16:20S 23°56' W 046°20'0 0.0
2018-Feb-20 15:44S 23°56' W 046°20'0 0.0
2018-Feb-20 15:26S 23°56' W 046°20'0 0.0
2018-Feb-20 14:50S 23°56' W 046°20'0 0.0
2018-Feb-20 14:20S 23°56' W 046°20'0 0.0
2018-Feb-20 13:56S 23°56' W 046°20'0 0.0
2018-Feb-20 13:26S 23°56' W 046°20'0 0.0
2018-Feb-20 12:50S 23°56' W 046°20'0 0.0
2018-Feb-20 12:26S 23°56' W 046°20'0 0.9
2018-Feb-20 12:00S 23°56' W 046°20'3 6.5
2018-Feb-20 11:30S 23°58' W 046°18'3 5.8
2018-Feb-20 11:00S 23°60' W 046°20'  
2018-Feb-15 16:04S 24°03' W 046°20'0 5.4
2018-Feb-15 16:00S 24°03' W 046°20'2 5.0
2018-Feb-15 15:30S 24°01' W 046°20'3 6.4
2018-Feb-15 15:00S 23°59' W 046°17'1 2.3
2018-Feb-15 14:30S 23°58' W 046°18'0 0.0
2018-Feb-15 13:59S 23°58' W 046°18'0 0.0
2018-Feb-15 13:29S 23°58' W 046°18'0 0.0
2018-Feb-15 12:59S 23°58' W 046°18'0 0.0
2018-Feb-15 12:29S 23°58' W 046°18'0 0.0
2018-Feb-15 11:59S 23°58' W 046°18'0 0.0
2018-Feb-15 11:29S 23°58' W 046°18'0 0.0
2018-Feb-15 10:59S 23°58' W 046°18'0 0.0
2018-Feb-15 10:29S 23°58' W 046°18'0 0.0
2018-Feb-15 09:59S 23°58' W 046°18'0 0.0
2018-Feb-15 09:29S 23°58' W 046°18'0 0.0
2018-Feb-15 08:59S 23°58' W 046°18'0 0.0
2018-Feb-15 08:29S 23°58' W 046°18'0 0.0
2018-Feb-15 07:59S 23°58' W 046°18'0 0.0
2018-Feb-15 07:29S 23°58' W 046°18'0 0.0
2018-Feb-15 06:59S 23°58' W 046°18'0 0.0
2018-Feb-15 06:11S 23°58' W 046°18'0 0.0
2018-Feb-15 05:59S 23°58' W 046°18'0 0.0
2018-Feb-15 05:29S 23°58' W 046°18'0 0.0
2018-Feb-15 04:59S 23°58' W 046°18'0 0.0
2018-Feb-15 04:29S 23°58' W 046°18'0 0.0
2018-Feb-15 03:59S 23°58' W 046°18'0 0.0
2018-Feb-15 03:29S 23°58' W 046°18'0 0.0
2018-Feb-15 02:53S 23°58' W 046°18'0 0.0
2018-Feb-15 02:23S 23°58' W 046°18'0 0.0
2018-Feb-15 01:59S 23°58' W 046°18'0 0.0
2018-Feb-15 01:29S 23°58' W 046°18'0 0.0
2018-Feb-15 00:47S 23°58' W 046°18'0 0.0
2018-Feb-15 00:29S 23°58' W 046°18'0 0.0
2018-Feb-14 23:59S 23°58' W 046°18'0 0.0
2018-Feb-14 23:29S 23°58' W 046°18'0 0.0
2018-Feb-14 22:56S 23°58' W 046°18'0 0.0
2018-Feb-14 22:23S 23°58' W 046°18'0 0.0
2018-Feb-14 21:59S 23°58' W 046°18'0 0.0
2018-Feb-14 21:29S 23°58' W 046°18'0 0.0
2018-Feb-14 20:53S 23°58' W 046°18'0 0.0
2018-Feb-14 20:29S 23°58' W 046°18'0 0.0
2018-Feb-14 19:59S 23°58' W 046°18'0 0.0
2018-Feb-14 19:29S 23°58' W 046°18'0 0.0
2018-Feb-14 18:59S 23°58' W 046°18'0 0.0
2018-Feb-14 18:29S 23°58' W 046°18'0 0.0
2018-Feb-14 17:53S 23°58' W 046°18'0 0.0
2018-Feb-14 17:29S 23°58' W 046°18'0 0.0
2018-Feb-14 16:59S 23°58' W 046°18'0 0.0
2018-Feb-14 16:29S 23°58' W 046°18'0 0.0
2018-Feb-14 15:59S 23°58' W 046°18'0 0.0
2018-Feb-14 15:29S 23°58' W 046°18'0 0.0
2018-Feb-14 14:59S 23°58' W 046°18'0 0.0
2018-Feb-14 14:11S 23°58' W 046°18'0 0.0
2018-Feb-14 13:59S 23°58' W 046°18'0 0.0
2018-Feb-14 13:23S 23°58' W 046°18'0 0.0
2018-Feb-14 12:53S 23°58' W 046°18'0 0.0
2018-Feb-14 12:23S 23°58' W 046°18'0 0.0
2018-Feb-14 11:59S 23°58' W 046°18'0 0.0
2018-Feb-14 11:29S 23°58' W 046°18'0 0.0
2018-Feb-14 10:59S 23°58' W 046°18'0 0.0
2018-Feb-14 10:29S 23°58' W 046°18'0 0.0
2018-Feb-14 09:59S 23°58' W 046°18'0 0.0
2018-Feb-14 09:29S 23°58' W 046°18'0 0.0
2018-Feb-14 08:53S 23°58' W 046°18'0 0.0
2018-Feb-14 08:29S 23°58' W 046°18'0 0.0
2018-Feb-14 07:59S 23°58' W 046°18'0 0.0
2018-Feb-14 07:23S 23°58' W 046°18'0 0.0
2018-Feb-14 06:59S 23°58' W 046°18'0 0.0
2018-Feb-14 06:29S 23°58' W 046°18'0 0.0
2018-Feb-14 05:59S 23°58' W 046°18'0 0.0
2018-Feb-14 04:41S 23°58' W 046°18'0 0.0
2018-Feb-14 04:29S 23°58' W 046°18'0 0.0
2018-Feb-14 03:53S 23°58' W 046°18'0 0.0
2018-Feb-14 03:29S 23°58' W 046°18'0 0.0
2018-Feb-14 02:59S 23°58' W 046°18'0 0.0
2018-Feb-14 02:29S 23°58' W 046°18'0 0.0
2018-Feb-14 01:59S 23°58' W 046°18'0 0.0
2018-Feb-14 01:29S 23°58' W 046°18'0 0.0
2018-Feb-14 00:56S 23°58' W 046°18'12 3.1
2018-Feb-13 21:09S 24°08' W 046°24'0 0.9
2018-Feb-13 20:59S 24°08' W 046°24'2 3.2
2018-Feb-13 20:28S 24°07' W 046°23'  
Track history (hours):
 
Tides and Currents Weather Stations Pressure Air Temp Water Temp Dewpoint Dewpoint Depression Visibility Wind Speed Wind Dir Waves Ship Positions

Jacamar Arrow

Last reported at 2018-Feb-21 23:58 UTC. Time now 2018-Feb-22 01:18 UTC.
Position S 23°37' W 042°56'.

Length 199 m; draft 11.1 m.

Type: Cargo ship. MMSI: 311044400.

Date/timePositionNaut miles runAvg speedWind from/ knotsBaromVisibWave heightAir tempDewpointWater temp
2018-Feb-21 23:58S 23°37' W 042°56'611.9
2018-Feb-21 23:26S 23°38' W 043°03'511.8
2018-Feb-21 23:00S 23°40' W 043°08'611.8
2018-Feb-21 22:29S 23°42' W 043°14'611.7
2018-Feb-21 22:01S 23°43' W 043°20'711.6
2018-Feb-21 21:27S 23°45' W 043°27'811.6
2018-Feb-21 20:45S 23°47' W 043°35'511.7
2018-Feb-21 20:21S 23°49' W 043°40'15011.3
2018-Feb-21 07:07S 24°08' W 046°23'1 9.3
2018-Feb-21 06:58S 24°06' W 046°24'4 5.9
2018-Feb-21 06:18S 24°02' W 046°22'2 8.3
2018-Feb-21 06:00S 24°01' W 046°21'4 4.6
2018-Feb-21 05:08S 23°57' W 046°18'1 5.5
2018-Feb-21 05:01S 23°56' W 046°19'2 3.3
2018-Feb-21 04:30S 23°56' W 046°20'0 0.2
2018-Feb-21 03:56S 23°56' W 046°20'0 0.0
2018-Feb-21 03:29S 23°56' W 046°20'0 0.0
2018-Feb-21 02:56S 23°56' W 046°20'0 0.0
2018-Feb-21 02:14S 23°56' W 046°20'0 0.0
2018-Feb-21 01:44S 23°56' W 046°20'0 0.0
2018-Feb-21 01:26S 23°56' W 046°20'0 0.0
2018-Feb-21 00:50S 23°56' W 046°20'0 0.0
2018-Feb-21 00:26S 23°56' W 046°20'0 0.0
2018-Feb-20 23:14S 23°56' W 046°20'0 0.0
2018-Feb-20 22:02S 23°56' W 046°20'0 0.0
2018-Feb-20 21:38S 23°56' W 046°20'0 0.0
2018-Feb-20 21:14S 23°56' W 046°20'0 0.0
2018-Feb-20 20:56S 23°56' W 046°20'0 0.0
2018-Feb-20 20:26S 23°56' W 046°20'0 0.0
2018-Feb-20 19:56S 23°56' W 046°20'0 0.0
2018-Feb-20 19:26S 23°56' W 046°20'0 0.0
2018-Feb-20 18:56S 23°56' W 046°20'0 0.0
2018-Feb-20 18:26S 23°56' W 046°20'0 0.0
2018-Feb-20 17:50S 23°56' W 046°20'0 0.0
2018-Feb-20 16:20S 23°56' W 046°20'0 0.0
2018-Feb-20 15:44S 23°56' W 046°20'0 0.0
2018-Feb-20 15:26S 23°56' W 046°20'0 0.0
2018-Feb-20 14:50S 23°56' W 046°20'0 0.0
2018-Feb-20 14:20S 23°56' W 046°20'0 0.0
2018-Feb-20 13:56S 23°56' W 046°20'0 0.0
2018-Feb-20 13:26S 23°56' W 046°20'0 0.0
2018-Feb-20 12:50S 23°56' W 046°20'0 0.0
2018-Feb-20 12:26S 23°56' W 046°20'0 0.9
2018-Feb-20 12:00S 23°56' W 046°20'3 6.5
2018-Feb-20 11:30S 23°58' W 046°18'3 5.8
2018-Feb-20 11:00S 23°60' W 046°20'  
2018-Feb-15 16:04S 24°03' W 046°20'0 5.4
2018-Feb-15 16:00S 24°03' W 046°20'2 5.0
2018-Feb-15 15:30S 24°01' W 046°20'3 6.4
2018-Feb-15 15:00S 23°59' W 046°17'1 2.3
2018-Feb-15 14:30S 23°58' W 046°18'0 0.0
2018-Feb-15 13:59S 23°58' W 046°18'0 0.0
2018-Feb-15 13:29S 23°58' W 046°18'0 0.0
2018-Feb-15 12:59S 23°58' W 046°18'0 0.0
2018-Feb-15 12:29S 23°58' W 046°18'0 0.0
2018-Feb-15 11:59S 23°58' W 046°18'0 0.0
2018-Feb-15 11:29S 23°58' W 046°18'0 0.0
2018-Feb-15 10:59S 23°58' W 046°18'0 0.0
2018-Feb-15 10:29S 23°58' W 046°18'0 0.0
2018-Feb-15 09:59S 23°58' W 046°18'0 0.0
2018-Feb-15 09:29S 23°58' W 046°18'0 0.0
2018-Feb-15 08:59S 23°58' W 046°18'0 0.0
2018-Feb-15 08:29S 23°58' W 046°18'0 0.0
2018-Feb-15 07:59S 23°58' W 046°18'0 0.0
2018-Feb-15 07:29S 23°58' W 046°18'0 0.0
2018-Feb-15 06:59S 23°58' W 046°18'0 0.0
2018-Feb-15 06:11S 23°58' W 046°18'0 0.0
2018-Feb-15 05:59S 23°58' W 046°18'0 0.0
2018-Feb-15 05:29S 23°58' W 046°18'0 0.0
2018-Feb-15 04:59S 23°58' W 046°18'0 0.0
2018-Feb-15 04:29S 23°58' W 046°18'0 0.0
2018-Feb-15 03:59S 23°58' W 046°18'0 0.0
2018-Feb-15 03:29S 23°58' W 046°18'0 0.0
2018-Feb-15 02:53S 23°58' W 046°18'0 0.0
2018-Feb-15 02:23S 23°58' W 046°18'0 0.0
2018-Feb-15 01:59S 23°58' W 046°18'0 0.0
2018-Feb-15 01:29S 23°58' W 046°18'0 0.0
2018-Feb-15 00:47S 23°58' W 046°18'0 0.0
2018-Feb-15 00:29S 23°58' W 046°18'0 0.0
2018-Feb-14 23:59S 23°58' W 046°18'0 0.0
2018-Feb-14 23:29S 23°58' W 046°18'0 0.0
2018-Feb-14 22:56S 23°58' W 046°18'0 0.0
2018-Feb-14 22:23S 23°58' W 046°18'0 0.0
2018-Feb-14 21:59S 23°58' W 046°18'0 0.0
2018-Feb-14 21:29S 23°58' W 046°18'0 0.0
2018-Feb-14 20:53S 23°58' W 046°18'0 0.0
2018-Feb-14 20:29S 23°58' W 046°18'0 0.0
2018-Feb-14 19:59S 23°58' W 046°18'0 0.0
2018-Feb-14 19:29S 23°58' W 046°18'0 0.0
2018-Feb-14 18:59S 23°58' W 046°18'0 0.0
2018-Feb-14 18:29S 23°58' W 046°18'0 0.0
2018-Feb-14 17:53S 23°58' W 046°18'0 0.0
2018-Feb-14 17:29S 23°58' W 046°18'0 0.0
2018-Feb-14 16:59S 23°58' W 046°18'0 0.0
2018-Feb-14 16:29S 23°58' W 046°18'0 0.0
2018-Feb-14 15:59S 23°58' W 046°18'0 0.0
2018-Feb-14 15:29S 23°58' W 046°18'0 0.0
2018-Feb-14 14:59S 23°58' W 046°18'0 0.0
2018-Feb-14 14:11S 23°58' W 046°18'0 0.0
2018-Feb-14 13:59S 23°58' W 046°18'0 0.0
2018-Feb-14 13:23S 23°58' W 046°18'0 0.0
2018-Feb-14 12:53S 23°58' W 046°18'0 0.0
2018-Feb-14 12:23S 23°58' W 046°18'0 0.0
2018-Feb-14 11:59S 23°58' W 046°18'0 0.0
2018-Feb-14 11:29S 23°58' W 046°18'0 0.0
2018-Feb-14 10:59S 23°58' W 046°18'0 0.0
2018-Feb-14 10:29S 23°58' W 046°18'0 0.0
2018-Feb-14 09:59S 23°58' W 046°18'0 0.0
2018-Feb-14 09:29S 23°58' W 046°18'0 0.0
2018-Feb-14 08:53S 23°58' W 046°18'0 0.0
2018-Feb-14 08:29S 23°58' W 046°18'0 0.0
2018-Feb-14 07:59S 23°58' W 046°18'0 0.0
2018-Feb-14 07:23S 23°58' W 046°18'0 0.0
2018-Feb-14 06:59S 23°58' W 046°18'0 0.0
2018-Feb-14 06:29S 23°58' W 046°18'0 0.0
2018-Feb-14 05:59S 23°58' W 046°18'0 0.0
2018-Feb-14 04:41S 23°58' W 046°18'0 0.0
2018-Feb-14 04:29S 23°58' W 046°18'0 0.0
2018-Feb-14 03:53S 23°58' W 046°18'0 0.0
2018-Feb-14 03:29S 23°58' W 046°18'0 0.0
2018-Feb-14 02:59S 23°58' W 046°18'0 0.0
2018-Feb-14 02:29S 23°58' W 046°18'0 0.0
2018-Feb-14 01:59S 23°58' W 046°18'0 0.0
2018-Feb-14 01:29S 23°58' W 046°18'0 0.0
2018-Feb-14 00:56S 23°58' W 046°18'12 3.1
2018-Feb-13 21:09S 24°08' W 046°24'0 0.9
2018-Feb-13 20:59S 24°08' W 046°24'2 3.2
2018-Feb-13 20:28S 24°07' W 046°23'  

Dump ship's entire track history